createdAt,value
2019-04-03T00:01:37.871Z,58.02
2019-04-03T00:04:07.464Z,58.38
2019-04-03T00:06:36.978Z,58.28
2019-04-03T00:09:08.304Z,58.21
2019-04-03T00:11:39.755Z,58.64
2019-04-03T00:14:12.248Z,58.69
2019-04-03T00:16:41.452Z,58.83
2019-04-03T00:19:13.509Z,59.02
2019-04-03T00:21:43.039Z,59.02
2019-04-03T00:24:12.658Z,59.18
2019-04-03T00:26:42.053Z,59.50
2019-04-03T00:29:11.563Z,59.73
2019-04-03T00:31:41.276Z,59.90
2019-04-03T00:34:10.913Z,60.07
2019-04-03T00:36:40.491Z,60.30
2019-04-03T00:39:12.492Z,60.38
2019-04-03T00:41:42.274Z,60.38
2019-04-03T00:44:12.812Z,60.75
2019-04-03T00:46:42.496Z,60.95
2019-04-03T00:49:14.367Z,61.35
2019-04-03T00:51:45.941Z,61.49
2019-04-03T00:54:17.297Z,61.44
2019-04-03T00:56:47.869Z,61.82
2019-04-03T00:59:17.241Z,61.69
2019-04-03T01:01:48.680Z,61.73
2019-04-03T01:04:19.979Z,62.28
2019-04-03T01:06:49.437Z,62.16
2019-04-03T01:09:21.082Z,62.47
2019-04-03T01:11:51.624Z,62.32
2019-04-03T01:14:23.608Z,62.72
2019-04-03T01:16:53.415Z,62.68
2019-04-03T01:19:24.309Z,62.58
2019-04-03T01:21:54.003Z,62.92
2019-04-03T01:24:25.518Z,63.05
2019-04-03T01:26:58.418Z,62.95
2019-04-03T01:29:27.840Z,63.26
2019-04-03T01:31:58.801Z,63.56
2019-04-03T01:34:31.915Z,63.61
2019-04-03T01:37:04.241Z,63.74
2019-04-03T01:39:35.774Z,63.93
2019-04-03T01:42:05.386Z,63.89
2019-04-03T01:44:35.152Z,63.83
2019-04-03T01:47:04.679Z,64.36
2019-04-03T01:49:34.116Z,64.53
2019-04-03T01:52:05.486Z,64.70
2019-04-03T01:54:36.441Z,64.81
2019-04-03T01:57:07.087Z,64.73
2019-04-03T01:59:37.499Z,64.86
2019-04-03T02:02:09.124Z,64.71
2019-04-03T02:04:38.608Z,64.65
2019-04-03T02:07:09.277Z,64.89
2019-04-03T02:09:39.100Z,64.78
2019-04-03T02:12:08.584Z,64.93
2019-04-03T02:14:37.986Z,65.41
2019-04-03T02:17:08.641Z,65.75
2019-04-03T02:19:39.369Z,65.89
2019-04-03T02:22:09.018Z,66.12
2019-04-03T02:24:38.822Z,66.52
2019-04-03T02:27:09.672Z,66.51
2019-04-03T02:29:41.150Z,66.69
2019-04-03T02:32:11.845Z,66.44
2019-04-03T02:34:41.435Z,66.68
2019-04-03T02:37:16.510Z,67.08
2019-04-03T02:39:44.859Z,67.03
2019-04-03T02:42:16.410Z,67.18
2019-04-03T02:44:48.405Z,67.24
2019-04-03T02:47:18.346Z,67.56
2019-04-03T02:49:51.351Z,67.61
2019-04-03T02:52:24.065Z,67.82
2019-04-03T02:54:53.878Z,67.78
2019-04-03T02:57:23.389Z,68.12
2019-04-03T02:59:58.834Z,68.60
2019-04-03T03:02:27.146Z,68.57
2019-04-03T03:04:57.907Z,68.45
2019-04-03T03:07:28.154Z,68.65
2019-04-03T03:09:58.432Z,68.63
2019-04-03T03:12:28.845Z,69.04
2019-04-03T03:14:59.485Z,69.26
2019-04-03T03:17:29.193Z,69.23
2019-04-03T03:20:05.168Z,69.29
2019-04-03T03:22:33.051Z,69.24
2019-04-03T03:25:03.359Z,69.32
2019-04-03T03:27:40.897Z,69.18
2019-04-03T03:30:29.973Z,69.26
2019-04-03T03:32:40.997Z,69.18
2019-04-03T03:35:16.911Z,69.12
2019-04-03T03:37:45.217Z,69.23
2019-04-03T03:40:17.243Z,69.11
2019-04-03T03:42:48.724Z,69.12
2019-04-03T03:45:21.604Z,69.10
2019-04-03T03:47:53.298Z,69.24
2019-04-03T03:50:26.115Z,69.32
2019-04-03T03:52:57.785Z,69.46
2019-04-03T03:55:27.843Z,69.45
2019-04-03T03:58:00.214Z,69.61
2019-04-03T04:00:31.827Z,69.41
2019-04-03T04:03:03.254Z,69.54
2019-04-03T04:05:32.799Z,69.62
2019-04-03T04:08:02.295Z,69.70
2019-04-03T04:10:36.424Z,70.11
2019-04-03T04:13:04.940Z,69.85
2019-04-03T04:15:34.644Z,69.97
2019-04-03T04:18:06.221Z,69.87
2019-04-03T04:20:38.530Z,69.94
2019-04-03T04:23:08.464Z,70.08
2019-04-03T04:25:43.218Z,69.86
2019-04-03T04:28:13.330Z,69.75
2019-04-03T04:30:46.319Z,69.77
2019-04-03T04:33:17.781Z,69.89
2019-04-03T04:35:47.551Z,70.05
2019-04-03T04:38:16.937Z,70.22
2019-04-03T04:40:46.955Z,70.32
2019-04-03T04:43:17.499Z,70.43
2019-04-03T04:45:48.950Z,70.49
2019-04-03T04:48:20.599Z,70.66
2019-04-03T04:50:50.747Z,70.86
2019-04-03T04:53:21.336Z,70.80
2019-04-03T04:55:51.255Z,70.79
2019-04-03T04:58:21.760Z,70.86
2019-04-03T05:00:53.502Z,70.91
2019-04-03T05:03:23.511Z,70.71
2019-04-03T05:05:52.946Z,70.35
2019-04-03T05:08:22.558Z,70.38
2019-04-03T05:10:52.406Z,70.53
2019-04-03T05:13:22.938Z,70.33
2019-04-03T05:15:54.674Z,70.54
2019-04-03T05:18:28.517Z,70.63
2019-04-03T05:20:57.665Z,70.67
2019-04-03T05:23:29.740Z,70.77
2019-04-03T05:26:01.895Z,70.56
2019-04-03T05:28:34.064Z,70.48
2019-04-03T05:31:03.091Z,70.44
2019-04-03T05:33:33.993Z,70.52
2019-04-03T05:36:03.619Z,70.42
2019-04-03T05:38:34.101Z,70.48
2019-04-03T05:41:03.837Z,70.67
2019-04-03T05:43:34.535Z,70.72
2019-04-03T05:46:05.666Z,70.51
2019-04-03T05:48:37.193Z,70.47
2019-04-03T05:51:07.788Z,70.45
2019-04-03T05:53:38.101Z,70.30
2019-04-03T05:56:07.828Z,70.16
2019-04-03T05:58:37.431Z,70.09
2019-04-03T06:01:07.393Z,70.17
2019-04-03T06:03:44.288Z,70.26
2019-04-03T06:06:11.017Z,70.96
2019-04-03T06:08:41.440Z,70.25
2019-04-03T06:11:11.139Z,69.87
2019-04-03T06:13:41.537Z,69.83
2019-04-03T06:16:10.956Z,69.53
2019-04-03T06:18:40.841Z,69.13
2019-04-03T06:21:11.351Z,69.13
2019-04-03T06:23:40.965Z,68.62
2019-04-03T06:26:11.107Z,68.39
2019-04-03T06:28:43.292Z,68.23
2019-04-03T06:31:14.857Z,67.83
2019-04-03T06:33:45.412Z,67.44
2019-04-03T06:36:17.212Z,67.46
2019-04-03T06:38:46.958Z,67.01
2019-04-03T06:41:16.791Z,66.81
2019-04-03T06:43:49.116Z,66.40
2019-04-03T06:46:17.419Z,66.40
2019-04-03T06:48:47.148Z,66.47
2019-04-03T06:51:17.846Z,66.39
2019-04-03T06:53:50.664Z,65.95
2019-04-03T06:56:21.934Z,65.77
2019-04-03T06:58:52.882Z,65.66
2019-04-03T07:01:22.377Z,65.50
2019-04-03T07:03:51.826Z,65.19
2019-04-03T07:06:21.264Z,65.23
2019-04-03T07:08:50.892Z,65.19
2019-04-03T07:11:23.627Z,65.24
2019-04-03T07:13:53.653Z,65.15
2019-04-03T07:16:23.014Z,65.19
2019-04-03T07:18:53.846Z,65.01
2019-04-03T07:21:24.004Z,64.56
2019-04-03T07:23:56.138Z,64.73
2019-04-03T07:26:27.595Z,64.70
2019-04-03T07:28:58.520Z,64.51
2019-04-03T07:31:28.497Z,64.45
2019-04-03T07:34:00.190Z,64.47
2019-04-03T07:36:29.401Z,64.30
2019-04-03T07:39:00.131Z,63.95
2019-04-03T07:41:29.601Z,63.63
2019-04-03T07:43:59.321Z,63.60
2019-04-03T07:46:31.507Z,63.89
2019-04-03T07:49:01.971Z,63.64
2019-04-03T07:51:32.513Z,63.59
2019-04-03T07:54:04.960Z,63.20
2019-04-03T07:56:34.597Z,62.97
2019-04-03T07:59:05.421Z,62.66
2019-04-03T08:01:34.912Z,62.55
2019-04-03T08:04:05.880Z,62.76
2019-04-03T08:06:36.489Z,62.35
2019-04-03T08:09:09.920Z,62.87
2019-04-03T08:11:40.107Z,62.51
2019-04-03T08:14:11.727Z,63.03
2019-04-03T08:16:43.288Z,62.17
2019-04-03T08:19:13.448Z,62.47
2019-04-03T08:21:43.281Z,61.99
2019-04-03T08:24:12.876Z,61.88
2019-04-03T08:26:43.735Z,61.97
2019-04-03T08:29:13.253Z,61.89
2019-04-03T08:31:45.021Z,62.01
2019-04-03T08:34:18.572Z,61.66
2019-04-03T08:36:48.598Z,61.45
2019-04-03T08:39:18.051Z,61.62
2019-04-03T08:41:47.931Z,61.28
2019-04-03T08:44:17.362Z,61.32
2019-04-03T08:46:46.876Z,61.04
2019-04-03T08:49:17.499Z,60.74
2019-04-03T08:51:50.270Z,60.51
2019-04-03T08:54:21.651Z,60.08
2019-04-03T08:56:52.160Z,60.68
2019-04-03T08:59:24.911Z,60.31
2019-04-03T09:01:55.710Z,60.64
2019-04-03T09:04:25.936Z,60.27
2019-04-03T09:06:57.491Z,59.89
2019-04-03T09:09:29.110Z,59.55
2019-04-03T09:12:00.247Z,59.54
2019-04-03T09:14:29.687Z,58.93
2019-04-03T09:17:02.709Z,59.51
2019-04-03T09:19:36.551Z,59.69
2019-04-03T09:22:07.460Z,60.63
2019-04-03T09:24:37.482Z,61.35
2019-04-03T09:27:09.859Z,61.96
2019-04-03T09:29:40.014Z,62.68
2019-04-03T09:32:10.915Z,63.66
2019-04-03T09:34:40.404Z,64.67
2019-04-03T09:37:09.936Z,65.63
2019-04-03T09:39:39.719Z,66.21
2019-04-03T09:42:09.154Z,66.98
2019-04-03T09:44:40.200Z,68.18
2019-04-03T09:47:11.746Z,69.00
2019-04-03T09:49:43.749Z,69.79
2019-04-03T09:52:12.479Z,70.78
2019-04-03T09:54:43.214Z,71.29
2019-04-03T09:57:12.617Z,71.86
2019-04-03T09:59:43.044Z,72.48
2019-04-03T10:02:15.260Z,73.55
2019-04-03T10:04:46.916Z,73.83
2019-04-03T10:07:17.410Z,73.77
2019-04-03T10:09:47.255Z,74.95
2019-04-03T10:12:16.879Z,74.92
2019-04-03T10:14:46.263Z,75.60
2019-04-03T10:17:15.701Z,75.82
2019-04-03T10:19:47.100Z,75.50
2019-04-03T10:22:16.487Z,76.08
2019-04-03T10:24:47.593Z,76.23
2019-04-03T10:27:17.064Z,76.21
2019-04-03T10:29:49.125Z,76.57
2019-04-03T10:32:18.060Z,77.35
2019-04-03T10:34:47.961Z,77.61
2019-04-03T10:37:19.366Z,78.06
2019-04-03T10:39:51.761Z,78.45
2019-04-03T10:42:22.471Z,78.57
2019-04-03T10:44:53.947Z,78.53
2019-04-03T10:47:39.474Z,78.29
2019-04-03T10:49:58.643Z,78.68
2019-04-03T10:52:28.162Z,79.16
2019-04-03T10:54:59.294Z,79.46
2019-04-03T10:57:33.204Z,79.26
2019-04-03T11:00:01.773Z,78.89
2019-04-03T11:02:32.926Z,78.08
2019-04-03T11:05:02.961Z,78.15
2019-04-03T11:07:32.643Z,77.95
2019-04-03T11:10:04.792Z,77.69
2019-04-03T11:12:36.690Z,77.59
2019-04-03T11:15:10.810Z,77.98
2019-04-03T11:17:42.692Z,77.84
2019-04-03T11:20:18.585Z,77.78
2019-04-03T11:22:48.997Z,78.32
2019-04-03T11:25:18.922Z,78.58
2019-04-03T11:27:49.604Z,78.91
2019-04-03T11:30:24.170Z,79.51
2019-04-03T11:32:53.795Z,79.92
2019-04-03T11:35:24.354Z,79.19
2019-04-03T11:37:56.736Z,78.93
2019-04-03T11:40:26.887Z,78.95
2019-04-03T11:42:56.760Z,78.75
2019-04-03T11:45:26.289Z,78.85
2019-04-03T11:47:55.900Z,78.64
2019-04-03T11:50:27.214Z,78.92
2019-04-03T11:52:56.734Z,78.25
2019-04-03T11:55:26.648Z,77.79
2019-04-03T11:57:56.097Z,77.92
2019-04-03T12:00:30.901Z,77.80
2019-04-03T12:03:02.219Z,77.59
2019-04-03T12:05:33.321Z,77.06
2019-04-03T12:08:03.117Z,76.94
2019-04-03T12:10:35.140Z,76.62
2019-04-03T12:13:04.832Z,77.12
2019-04-03T12:15:36.941Z,77.91
2019-04-03T12:18:07.015Z,78.47
2019-04-03T12:20:41.046Z,79.26
2019-04-03T12:23:08.168Z,78.95
2019-04-03T12:25:39.399Z,79.23
2019-04-03T12:28:11.020Z,78.74
2019-04-03T12:30:41.642Z,78.72
2019-04-03T12:33:13.628Z,79.01
2019-04-03T12:35:46.228Z,79.03
2019-04-03T12:38:17.585Z,78.58
2019-04-03T12:40:47.396Z,78.47
2019-04-03T12:43:17.911Z,78.64
2019-04-03T12:45:48.395Z,78.14
2019-04-03T12:48:19.933Z,77.81
2019-04-03T12:50:49.623Z,77.21
2019-04-03T12:53:19.121Z,77.16
2019-04-03T12:55:49.957Z,76.51
2019-04-03T12:58:19.355Z,75.73
2019-04-03T13:00:51.672Z,75.44
2019-04-03T13:03:23.548Z,75.55
2019-04-03T13:05:52.831Z,75.76
2019-04-03T13:08:22.439Z,75.36
2019-04-03T13:10:54.227Z,75.04
2019-04-03T13:13:27.948Z,75.18
2019-04-03T13:15:56.831Z,74.55
2019-04-03T13:18:27.015Z,73.11
2019-04-03T13:20:56.817Z,72.61
2019-04-03T13:23:28.216Z,71.13
2019-04-03T13:25:59.957Z,70.76
2019-04-03T13:28:30.710Z,70.79
2019-04-03T13:31:01.701Z,70.34
2019-04-03T13:33:36.245Z,69.72
2019-04-03T13:36:07.636Z,69.42
2019-04-03T13:38:37.083Z,70.05
2019-04-03T13:41:07.952Z,69.38
2019-04-03T13:43:41.505Z,69.68
2019-04-03T13:46:11.160Z,69.13
2019-04-03T13:48:40.976Z,69.58
2019-04-03T13:51:12.370Z,69.30
2019-04-03T13:53:42.175Z,69.49
2019-04-03T13:56:12.719Z,69.56
2019-04-03T13:58:42.806Z,68.57
2019-04-03T14:01:13.722Z,68.78
2019-04-03T14:03:43.666Z,68.58
2019-04-03T14:06:13.217Z,68.85
2019-04-03T14:08:45.324Z,68.51
2019-04-03T14:11:19.042Z,68.43
2019-04-03T14:13:49.613Z,69.58
2019-04-03T14:16:22.390Z,68.60
2019-04-03T14:18:51.639Z,68.68
2019-04-03T14:21:21.199Z,69.21
2019-04-03T14:23:50.872Z,69.85
2019-04-03T14:26:21.652Z,69.61
2019-04-03T14:28:51.282Z,70.53
2019-04-03T14:31:32.729Z,70.60
2019-04-03T14:33:52.510Z,70.21
2019-04-03T14:36:22.477Z,70.15
2019-04-03T14:38:55.304Z,70.72
2019-04-03T14:41:26.322Z,71.58
2019-04-03T14:43:56.949Z,71.92
2019-04-03T14:46:28.255Z,71.11
2019-04-03T14:49:00.342Z,71.08
2019-04-03T14:51:31.600Z,71.15
2019-04-03T14:54:01.235Z,71.46
2019-04-03T14:56:33.246Z,71.58
2019-04-03T14:59:02.968Z,71.71
2019-04-03T15:01:33.099Z,71.41
2019-04-03T15:04:02.937Z,71.01
2019-04-03T15:06:32.329Z,71.24
2019-04-03T15:09:02.823Z,70.45
2019-04-03T15:11:34.386Z,70.06
2019-04-03T15:14:05.216Z,70.10
2019-04-03T15:16:34.563Z,70.49
2019-04-03T15:19:05.041Z,70.52
2019-04-03T15:21:35.924Z,70.54
2019-04-03T15:24:05.775Z,70.82
2019-04-03T15:26:35.317Z,70.62
2019-04-03T15:29:06.516Z,70.82
2019-04-03T15:31:35.973Z,71.33
2019-04-03T15:34:05.796Z,71.16
2019-04-03T15:36:36.395Z,70.99
2019-04-03T15:39:16.403Z,71.03
2019-04-03T15:41:47.869Z,70.78
2019-04-03T15:44:19.981Z,70.61
2019-04-03T15:46:48.601Z,70.33
2019-04-03T15:49:18.554Z,70.19
2019-04-03T15:51:51.359Z,70.54
2019-04-03T15:54:20.780Z,70.44
2019-04-03T15:56:51.248Z,70.30
2019-04-03T15:59:24.131Z,70.62
2019-04-03T16:01:54.004Z,70.11
2019-04-03T16:04:24.918Z,69.85
2019-04-03T16:06:55.731Z,68.40
2019-04-03T16:09:25.707Z,67.33
2019-04-03T16:12:00.275Z,67.38
2019-04-03T16:14:30.896Z,67.89
2019-04-03T16:17:02.997Z,68.20
2019-04-03T16:19:34.394Z,68.08
2019-04-03T16:22:03.877Z,68.27
2019-04-03T16:24:33.446Z,69.06
2019-04-03T16:27:03.879Z,69.32
2019-04-03T16:29:33.595Z,69.31
2019-04-03T16:32:03.565Z,68.91
2019-04-03T16:34:33.516Z,67.87
2019-04-03T16:37:04.141Z,67.83
2019-04-03T16:39:34.774Z,67.14
2019-04-03T16:42:04.825Z,67.46
2019-04-03T16:44:34.197Z,67.11
2019-04-03T16:47:05.407Z,67.26
2019-04-03T16:49:36.197Z,67.55
2019-04-03T16:52:07.198Z,66.94
2019-04-03T16:54:37.140Z,67.04
2019-04-03T16:57:07.004Z,67.04
2019-04-03T16:59:40.314Z,67.08
2019-04-03T17:02:12.569Z,67.03
2019-04-03T17:04:43.572Z,67.30
2019-04-03T17:07:14.830Z,67.29
2019-04-03T17:09:44.755Z,67.12
2019-04-03T17:12:17.325Z,67.53
2019-04-03T17:14:47.098Z,67.62
2019-04-03T17:17:19.716Z,67.80
2019-04-03T17:19:51.371Z,68.22
2019-04-03T17:22:22.252Z,68.31
2019-04-03T17:24:56.237Z,68.65
2019-04-03T17:27:29.670Z,68.34
2019-04-03T17:29:58.643Z,68.62
2019-04-03T17:32:30.841Z,68.77
2019-04-03T17:35:01.387Z,68.87
2019-04-03T17:37:31.155Z,68.64
2019-04-03T17:40:00.836Z,68.73
2019-04-03T17:42:30.772Z,68.78
2019-04-03T17:45:00.371Z,68.68
2019-04-03T17:47:29.869Z,68.74
2019-04-03T17:50:00.671Z,68.64
2019-04-03T17:52:30.350Z,68.72
2019-04-03T17:55:01.039Z,68.50
2019-04-03T17:57:32.639Z,68.85
2019-04-03T18:00:03.450Z,68.86
2019-04-03T18:02:33.029Z,68.69
2019-04-03T18:05:06.362Z,68.92
2019-04-03T18:07:37.174Z,68.68
2019-04-03T18:10:09.179Z,69.11
2019-04-03T18:12:40.114Z,69.18
2019-04-03T18:15:10.171Z,69.30
2019-04-03T18:17:39.745Z,69.39
2019-04-03T18:20:13.268Z,69.58
2019-04-03T18:22:44.910Z,69.84
2019-04-03T18:25:15.654Z,69.84
2019-04-03T18:27:45.556Z,70.08
2019-04-03T18:30:16.916Z,69.92
2019-04-03T18:32:48.368Z,70.20
2019-04-03T18:35:19.758Z,70.31
2019-04-03T18:37:51.066Z,70.46
2019-04-03T18:40:20.639Z,70.67
2019-04-03T18:42:52.177Z,71.17
2019-04-03T18:45:25.537Z,71.55
2019-04-03T18:47:54.866Z,71.54
2019-04-03T18:50:24.467Z,71.81
2019-04-03T18:52:53.974Z,71.80
2019-04-03T18:55:23.359Z,72.01
2019-04-03T18:57:53.067Z,72.20
2019-04-03T19:00:22.625Z,72.70
2019-04-03T19:02:51.994Z,72.62
2019-04-03T19:05:21.503Z,72.48
2019-04-03T19:07:50.923Z,72.44
2019-04-03T19:10:23.028Z,72.66
2019-04-03T19:12:51.515Z,72.70
2019-04-03T19:15:21.240Z,72.86
2019-04-03T19:17:59.876Z,72.94
2019-04-03T19:20:21.889Z,72.88
2019-04-03T19:23:01.893Z,72.80
2019-04-03T19:25:22.444Z,72.57
2019-04-03T19:27:52.339Z,72.85
2019-04-03T19:30:21.961Z,72.86
2019-04-03T19:32:51.362Z,72.91
2019-04-03T19:35:21.176Z,73.07
2019-04-03T19:37:50.549Z,73.09
2019-04-03T19:40:19.983Z,73.22
2019-04-03T19:42:49.653Z,73.48
2019-04-03T19:45:21.328Z,73.40
2019-04-03T19:47:50.229Z,73.48
2019-04-03T19:50:19.664Z,73.48
2019-04-03T19:52:49.111Z,73.65
2019-04-03T19:55:19.479Z,73.97
2019-04-03T19:57:49.991Z,73.84
2019-04-03T20:00:20.716Z,74.21
2019-04-03T20:02:50.123Z,74.39
2019-04-03T20:05:19.690Z,74.09
2019-04-03T20:07:49.156Z,74.00
2019-04-03T20:10:18.575Z,74.28
2019-04-03T20:12:48.107Z,74.33
2019-04-03T20:15:17.528Z,74.47
2019-04-03T20:17:47.217Z,74.67
2019-04-03T20:20:16.986Z,75.22
2019-04-03T20:22:46.647Z,75.46
2019-04-03T20:25:16.669Z,75.49
2019-04-03T20:27:47.380Z,76.27
2019-04-03T20:30:17.968Z,76.50
2019-04-03T20:32:47.400Z,76.59
2019-04-03T20:35:18.718Z,77.21
2019-04-03T20:37:49.296Z,77.05
2019-04-03T20:40:18.706Z,77.10
2019-04-03T20:42:48.437Z,76.87
2019-04-03T20:45:19.753Z,76.48
2019-04-03T20:47:49.266Z,76.42
2019-04-03T20:50:18.785Z,76.41
2019-04-03T20:52:48.227Z,76.46
2019-04-03T20:55:17.662Z,76.75
2019-04-03T20:57:55.316Z,76.70
2019-04-03T21:00:19.786Z,76.78
2019-04-03T21:02:49.257Z,76.63
2019-04-03T21:05:18.962Z,76.50
2019-04-03T21:07:48.408Z,76.07
2019-04-03T21:10:17.848Z,75.85
2019-04-03T21:12:48.273Z,75.58
2019-04-03T21:15:17.777Z,75.60
2019-04-03T21:17:49.728Z,75.46
2019-04-03T21:20:18.818Z,75.33
2019-04-03T21:22:49.777Z,75.11
2019-04-03T21:25:20.440Z,75.33
2019-04-03T21:27:49.907Z,74.94
2019-04-03T21:30:19.304Z,74.54
2019-04-03T21:32:48.741Z,74.54
2019-04-03T21:35:18.320Z,74.18
2019-04-03T21:37:47.708Z,74.08
2019-04-03T21:40:17.419Z,73.65
2019-04-03T21:42:47.372Z,73.43
2019-04-03T21:45:17.001Z,73.92
2019-04-03T21:47:47.031Z,73.93
2019-04-03T21:50:19.188Z,73.40
2019-04-03T21:52:48.364Z,73.27
2019-04-03T21:55:18.731Z,73.44
2019-04-03T21:57:48.524Z,73.57
2019-04-03T22:00:36.660Z,73.50
2019-04-03T22:03:08.116Z,73.40
2019-04-03T22:05:39.301Z,73.41
2019-04-03T22:08:12.346Z,73.37
2019-04-03T22:10:41.930Z,73.43
2019-04-03T22:13:14.852Z,73.48
2019-04-03T22:15:45.566Z,72.97
2019-04-03T22:18:15.677Z,73.19
2019-04-03T22:20:45.101Z,72.89
2019-04-03T22:23:15.537Z,73.15
2019-04-03T22:25:45.263Z,72.96
2019-04-03T22:28:14.780Z,72.97
2019-04-03T22:30:44.254Z,72.98
2019-04-03T22:33:13.793Z,72.85
2019-04-03T22:35:44.863Z,72.77
2019-04-03T22:38:14.325Z,72.59
2019-04-03T22:40:45.718Z,72.47
2019-04-03T22:43:15.482Z,72.02
2019-04-03T22:45:50.470Z,71.72
2019-04-03T22:48:18.686Z,71.82
2019-04-03T22:50:48.097Z,71.41
2019-04-03T22:53:17.496Z,71.45
2019-04-03T22:55:47.331Z,70.92
2019-04-03T22:58:17.051Z,70.64
2019-04-03T23:00:47.097Z,70.88
2019-04-03T23:03:17.230Z,70.57
2019-04-03T23:05:48.044Z,70.55
2019-04-03T23:08:18.062Z,70.39
2019-04-03T23:10:47.672Z,70.40
2019-04-03T23:13:17.528Z,70.62
2019-04-03T23:15:47.135Z,69.82
2019-04-03T23:18:17.520Z,69.68
2019-04-03T23:20:47.199Z,69.59
2019-04-03T23:23:17.243Z,68.83
2019-04-03T23:25:47.486Z,69.24
2019-04-03T23:28:17.175Z,69.41
2019-04-03T23:30:47.368Z,69.28
2019-04-03T23:33:17.647Z,68.85
2019-04-03T23:35:47.206Z,69.07
2019-04-03T23:38:17.318Z,70.45
2019-04-03T23:40:47.432Z,71.41
2019-04-03T23:43:17.174Z,71.80
2019-04-03T23:45:47.171Z,73.57
2019-04-03T23:48:18.268Z,74.09
2019-04-03T23:50:48.266Z,74.18
2019-04-03T23:53:17.723Z,74.08
2019-04-03T23:55:47.325Z,74.34
2019-04-03T23:58:17.193Z,75.01
